createdAt,value
2023-04-17T00:01:22.442Z,39.30
2023-04-17T00:03:49.365Z,37.33
2023-04-17T00:06:16.515Z,46.23
2023-04-17T00:08:43.718Z,41.60
2023-04-17T00:11:10.533Z,40.30
2023-04-17T00:13:37.428Z,44.27
2023-04-17T00:16:04.366Z,45.63
2023-04-17T00:18:31.274Z,35.93
2023-04-17T00:20:58.075Z,46.70
2023-04-17T00:23:26.449Z,40.57
2023-04-17T00:25:53.232Z,33.30
2023-04-17T00:28:20.040Z,45.07
2023-04-17T00:30:46.954Z,44.03
2023-04-17T00:33:13.794Z,40.90
2023-04-17T00:35:41.219Z,44.30
2023-04-17T00:38:09.402Z,37.70
2023-04-17T00:40:36.731Z,42.90
2023-04-17T00:43:04.682Z,42.70
2023-04-17T00:45:31.787Z,41.10
2023-04-17T00:48:00.229Z,58.17
2023-04-17T00:50:31.240Z,43.20
2023-04-17T00:52:59.642Z,42.00
2023-04-17T00:55:27.865Z,46.53
2023-04-17T00:57:56.404Z,45.23
2023-04-17T01:00:23.772Z,47.63
2023-04-17T01:02:50.719Z,36.90
2023-04-17T01:05:17.871Z,38.63
2023-04-17T01:07:45.964Z,36.87
2023-04-17T01:10:12.876Z,36.90
2023-04-17T01:12:40.615Z,44.70
2023-04-17T01:15:07.994Z,38.80
2023-04-17T01:17:34.925Z,43.37
2023-04-17T01:20:01.961Z,39.97
2023-04-17T01:22:28.917Z,40.17
2023-04-17T01:24:55.867Z,36.47
2023-04-17T01:27:22.804Z,41.97
2023-04-17T01:29:49.711Z,42.40
2023-04-17T01:32:17.838Z,42.60
2023-04-17T01:34:44.900Z,47.40
2023-04-17T01:37:11.783Z,38.13
2023-04-17T01:39:38.639Z,37.57
2023-04-17T01:42:05.717Z,37.67
2023-04-17T01:44:32.598Z,50.40
2023-04-17T01:46:59.527Z,43.00
2023-04-17T01:49:26.524Z,38.70
2023-04-17T01:51:53.372Z,42.30
2023-04-17T01:54:21.393Z,42.93
2023-04-17T01:56:48.352Z,43.63
2023-04-17T01:59:15.605Z,41.50
2023-04-17T02:01:42.516Z,45.80
2023-04-17T02:04:09.562Z,55.17
2023-04-17T02:06:36.671Z,40.77
2023-04-17T02:09:04.064Z,43.13
2023-04-17T02:11:30.863Z,37.57
2023-04-17T02:13:57.698Z,45.60
2023-04-17T02:16:24.578Z,49.80
2023-04-17T02:18:52.254Z,46.87
2023-04-17T02:21:19.207Z,42.47
2023-04-17T02:23:46.014Z,39.33
2023-04-17T02:26:12.842Z,48.73
2023-04-17T02:28:40.061Z,47.37
2023-04-17T02:31:08.769Z,42.77
2023-04-17T02:33:36.930Z,43.87
2023-04-17T02:36:07.046Z,45.67
2023-04-17T02:38:33.895Z,49.83
2023-04-17T02:41:00.822Z,41.13
2023-04-17T02:43:27.654Z,47.47
2023-04-17T02:45:54.447Z,48.20
2023-04-17T02:48:21.415Z,46.30
2023-04-17T02:50:48.771Z,49.27
2023-04-17T02:53:15.843Z,58.37
2023-04-17T02:55:42.647Z,49.40
2023-04-17T02:58:09.522Z,56.27
2023-04-17T03:00:36.452Z,50.40
2023-04-17T03:03:03.605Z,51.00
2023-04-17T03:05:30.800Z,63.03
2023-04-17T03:08:00.946Z,55.63
2023-04-17T03:10:27.787Z,49.13
2023-04-17T03:12:54.866Z,51.03
2023-04-17T03:15:21.912Z,55.43
2023-04-17T03:17:48.836Z,59.47
2023-04-17T03:20:16.219Z,54.13
2023-04-17T03:22:43.323Z,47.23
2023-04-17T03:25:11.175Z,60.33
2023-04-17T03:27:38.854Z,60.53
2023-04-17T03:30:06.533Z,56.00
2023-04-17T03:32:33.538Z,57.27
2023-04-17T03:35:00.700Z,59.67
2023-04-17T03:37:27.560Z,63.77
2023-04-17T03:39:55.856Z,61.70
2023-04-17T03:42:22.867Z,64.67
2023-04-17T03:44:49.773Z,62.73
2023-04-17T03:47:16.574Z,61.23
2023-04-17T03:49:43.384Z,69.47
2023-04-17T03:52:10.502Z,68.47
2023-04-17T03:54:37.539Z,71.53
2023-04-17T03:57:04.455Z,71.27
2023-04-17T03:59:31.865Z,73.43
2023-04-17T04:01:58.934Z,71.27
2023-04-17T04:04:26.253Z,79.33
2023-04-17T04:06:54.662Z,83.83
2023-04-17T04:09:21.706Z,70.17
2023-04-17T04:11:48.688Z,79.07
2023-04-17T04:14:15.557Z,81.00
2023-04-17T04:16:42.717Z,68.80
2023-04-17T04:19:09.777Z,76.33
2023-04-17T04:21:36.764Z,83.03
2023-04-17T04:24:03.643Z,74.80
2023-04-17T04:26:31.297Z,74.73
2023-04-17T04:29:00.211Z,66.43
2023-04-17T04:31:30.706Z,76.33
2023-04-17T04:33:59.010Z,73.57
2023-04-17T04:36:29.927Z,76.10
2023-04-17T04:39:01.000Z,71.33
2023-04-17T04:41:30.177Z,74.20
2023-04-17T04:43:57.038Z,76.63
2023-04-17T04:46:23.928Z,70.70
2023-04-17T04:48:50.741Z,73.13
2023-04-17T04:51:19.217Z,71.50
2023-04-17T04:53:46.309Z,71.53
2023-04-17T04:56:13.230Z,66.93
2023-04-17T04:58:40.055Z,72.30
2023-04-17T05:01:07.765Z,89.73
2023-04-17T05:03:34.861Z,64.53
2023-04-17T05:06:01.957Z,76.00
2023-04-17T05:08:28.750Z,84.73
2023-04-17T05:10:55.804Z,75.93
2023-04-17T05:13:22.604Z,64.83
2023-04-17T05:15:49.660Z,68.53
2023-04-17T05:18:16.556Z,82.13
2023-04-17T05:20:43.415Z,72.17
2023-04-17T05:23:10.491Z,71.63
2023-04-17T05:25:37.346Z,70.60
2023-04-17T05:28:04.272Z,62.90
2023-04-17T05:30:31.242Z,62.67
2023-04-17T05:32:59.298Z,71.93
2023-04-17T05:35:26.283Z,66.00
2023-04-17T05:37:54.262Z,65.50
2023-04-17T05:40:21.042Z,75.30
2023-04-17T05:42:47.861Z,68.33
2023-04-17T05:45:15.820Z,66.17
2023-04-17T05:47:42.659Z,68.97
2023-04-17T05:50:10.155Z,73.67
2023-04-17T05:52:39.458Z,72.07
2023-04-17T05:55:07.124Z,68.20
2023-04-17T05:57:34.053Z,60.10
2023-04-17T06:00:00.978Z,61.10
2023-04-17T06:02:28.171Z,62.23
2023-04-17T06:04:55.442Z,64.70
2023-04-17T06:07:22.423Z,60.37
2023-04-17T06:09:49.351Z,65.57
2023-04-17T06:12:16.484Z,63.77
2023-04-17T06:14:43.886Z,66.10
2023-04-17T06:17:12.490Z,64.30
2023-04-17T06:19:39.852Z,67.40
2023-04-17T06:22:06.984Z,69.87
2023-04-17T06:24:33.838Z,59.53
2023-04-17T06:27:00.716Z,65.03
2023-04-17T06:29:27.597Z,67.30
2023-04-17T06:31:54.588Z,61.47
2023-04-17T06:34:21.938Z,70.63
2023-04-17T06:36:48.920Z,55.63
2023-04-17T06:39:15.881Z,59.57
2023-04-17T06:41:42.824Z,62.17
2023-04-17T06:44:09.666Z,57.93
2023-04-17T06:46:36.959Z,56.60
2023-04-17T06:49:03.836Z,55.03
2023-04-17T06:51:30.743Z,61.50
2023-04-17T06:53:57.614Z,54.63
2023-04-17T06:56:24.505Z,56.03
2023-04-17T06:58:52.345Z,54.87
2023-04-17T07:01:19.409Z,62.13
2023-04-17T07:03:47.293Z,54.73
2023-04-17T07:06:14.326Z,68.17
2023-04-17T07:08:41.155Z,59.40
2023-04-17T07:11:07.989Z,61.50
2023-04-17T07:13:34.853Z,58.33
2023-04-17T07:16:02.025Z,56.73
2023-04-17T07:18:31.980Z,54.00
2023-04-17T07:20:59.032Z,59.33
2023-04-17T07:23:25.951Z,60.50
2023-04-17T07:25:52.929Z,64.77
2023-04-17T07:28:19.852Z,52.53
2023-04-17T07:30:46.809Z,53.97
2023-04-17T07:33:13.633Z,60.77
2023-04-17T07:35:40.614Z,53.83
2023-04-17T07:38:07.413Z,48.80
2023-04-17T07:40:36.395Z,56.90
2023-04-17T07:43:03.275Z,48.43
2023-04-17T07:45:30.121Z,50.23
2023-04-17T07:47:57.079Z,53.40
2023-04-17T07:50:24.029Z,50.27
2023-04-17T07:52:50.957Z,51.30
2023-04-17T07:55:17.909Z,51.73
2023-04-17T07:57:46.663Z,55.93
2023-04-17T08:00:14.843Z,56.57
2023-04-17T08:02:42.747Z,52.90
2023-04-17T08:05:10.148Z,48.37
2023-04-17T08:07:37.533Z,52.20
2023-04-17T08:10:05.245Z,53.77
2023-04-17T08:12:32.402Z,50.60
2023-04-17T08:14:59.355Z,44.67
2023-04-17T08:17:26.348Z,44.13
2023-04-17T08:19:59.012Z,52.90
2023-04-17T08:22:26.255Z,49.47
2023-04-17T08:24:58.046Z,46.30
2023-04-17T08:27:28.136Z,50.67
2023-04-17T08:29:54.917Z,56.97
2023-04-17T08:32:21.908Z,43.60
2023-04-17T08:34:48.796Z,48.57
2023-04-17T08:37:15.642Z,41.00
2023-04-17T08:39:42.547Z,41.20
2023-04-17T08:42:17.756Z,39.63
2023-04-17T08:44:45.957Z,44.67
2023-04-17T08:47:13.500Z,43.17
2023-04-17T08:49:43.929Z,42.53
2023-04-17T08:52:11.498Z,50.83
2023-04-17T08:54:39.126Z,42.90
2023-04-17T08:57:06.420Z,45.60
2023-04-17T08:59:33.621Z,48.07
2023-04-17T09:02:04.009Z,48.97
2023-04-17T09:04:41.984Z,45.10
2023-04-17T09:07:11.661Z,45.77
2023-04-17T09:09:48.445Z,36.30
2023-04-17T09:12:15.560Z,47.40
2023-04-17T09:14:42.452Z,41.73
2023-04-17T09:17:09.315Z,47.27
2023-04-17T09:19:36.402Z,39.87
2023-04-17T09:22:20.616Z,37.20
2023-04-17T09:24:48.606Z,42.23
2023-04-17T09:27:22.698Z,38.57
2023-04-17T09:30:15.846Z,42.10
2023-04-17T09:32:42.805Z,41.43
2023-04-17T09:35:09.717Z,41.90
2023-04-17T09:37:51.363Z,38.03
2023-04-17T09:40:20.040Z,40.10
2023-04-17T09:42:56.931Z,40.90
2023-04-17T09:45:24.691Z,37.00
2023-04-17T09:47:58.920Z,35.17
2023-04-17T09:50:25.993Z,42.00
2023-04-17T09:52:54.622Z,37.83
2023-04-17T09:55:23.768Z,37.13
2023-04-17T09:57:53.274Z,34.93
2023-04-17T10:00:21.458Z,32.60
2023-04-17T10:02:52.293Z,41.97
2023-04-17T10:05:20.561Z,36.97
2023-04-17T10:07:48.078Z,33.73
2023-04-17T10:10:31.179Z,37.13
2023-04-17T10:13:01.331Z,36.70
2023-04-17T10:18:24.986Z,31.63
2023-04-17T10:20:53.826Z,30.97
2023-04-17T10:23:34.743Z,33.40
2023-04-17T10:26:24.972Z,30.33
2023-04-17T10:28:53.362Z,29.80
2023-04-17T10:31:43.201Z,31.57
2023-04-17T10:34:36.975Z,33.67
2023-04-17T10:37:05.250Z,25.03
2023-04-17T10:39:51.728Z,27.60
2023-04-17T10:42:20.877Z,35.57
2023-04-17T10:44:48.821Z,29.47
2023-04-17T10:47:19.619Z,27.17
2023-04-17T10:49:59.459Z,29.63
2023-04-17T10:52:41.562Z,27.47
2023-04-17T10:55:17.448Z,31.20
2023-04-17T10:58:06.999Z,21.33
2023-04-17T11:00:37.550Z,21.20
2023-04-17T11:03:06.977Z,21.40
2023-04-17T11:05:36.065Z,23.23
2023-04-17T11:08:03.156Z,23.90
2023-04-17T11:10:30.199Z,20.60
2023-04-17T11:13:00.126Z,22.97
2023-04-17T11:18:02.819Z,24.10
2023-04-17T11:20:31.638Z,22.50
2023-04-17T11:23:06.164Z,25.60
2023-04-17T11:25:34.640Z,22.03
2023-04-17T11:28:06.108Z,24.93
2023-04-17T11:30:37.958Z,22.07
2023-04-17T11:33:06.714Z,30.73
2023-04-17T11:35:36.058Z,18.43
2023-04-17T11:38:31.736Z,20.27
2023-04-17T11:41:02.413Z,19.10
2023-04-17T11:43:34.838Z,19.50
2023-04-17T11:46:02.364Z,19.37
2023-04-17T11:48:30.502Z,20.43
2023-04-17T11:51:01.276Z,18.27
2023-04-17T11:53:28.984Z,18.97
2023-04-17T11:56:18.478Z,17.03
2023-04-17T11:58:50.255Z,17.60
2023-04-17T12:01:18.716Z,23.07
2023-04-17T12:03:47.906Z,17.73
2023-04-17T12:06:15.013Z,17.20
2023-04-17T12:08:44.312Z,24.27
2023-04-17T12:11:26.326Z,14.83
2023-04-17T12:13:55.370Z,18.63
2023-04-17T12:16:27.301Z,16.37
2023-04-17T12:18:55.033Z,18.90
2023-04-17T12:21:24.101Z,20.03
2023-04-17T12:23:51.827Z,18.30
2023-04-17T12:26:18.719Z,22.90
2023-04-17T12:28:45.605Z,34.87
2023-04-17T12:31:12.902Z,27.07
2023-04-17T12:33:39.713Z,19.63
2023-04-17T12:36:07.170Z,25.03
2023-04-17T12:38:34.142Z,18.80
2023-04-17T12:41:01.009Z,20.40
2023-04-17T12:43:27.962Z,17.23
2023-04-17T12:45:54.968Z,18.73
2023-04-17T12:48:21.990Z,19.60
2023-04-17T12:50:48.888Z,28.87
2023-04-17T12:53:15.894Z,18.63
2023-04-17T12:55:44.277Z,14.97
2023-04-17T12:58:12.709Z,16.80
2023-04-17T13:00:43.544Z,24.60
2023-04-17T13:03:11.664Z,23.73
2023-04-17T13:05:39.683Z,16.90
2023-04-17T13:08:06.566Z,18.10
2023-04-17T13:10:34.463Z,16.20
2023-04-17T13:13:02.480Z,16.53
2023-04-17T13:15:29.362Z,23.00
2023-04-17T13:17:56.364Z,16.70
2023-04-17T13:20:23.350Z,19.83
2023-04-17T13:22:50.253Z,17.40
2023-04-17T13:25:17.190Z,21.23
2023-04-17T13:27:44.060Z,17.63
2023-04-17T13:30:11.859Z,19.97
2023-04-17T13:32:40.558Z,18.90
2023-04-17T13:35:10.150Z,13.53
2023-04-17T13:37:37.167Z,22.00
2023-04-17T13:40:05.682Z,21.30
2023-04-17T13:42:32.668Z,17.57
2023-04-17T13:44:59.559Z,17.73
2023-04-17T13:47:26.484Z,17.97
2023-04-17T13:49:53.355Z,17.73
2023-04-17T13:52:20.224Z,18.30
2023-04-17T13:54:47.045Z,20.53
2023-04-17T13:57:15.088Z,17.63
2023-04-17T13:59:41.854Z,20.77
2023-04-17T14:02:09.265Z,17.50
2023-04-17T14:04:36.407Z,12.83
2023-04-17T14:07:03.936Z,14.70
2023-04-17T14:09:30.806Z,12.37
2023-04-17T14:11:58.301Z,11.60
2023-04-17T14:14:25.301Z,10.50
2023-04-17T14:16:52.206Z,9.70
2023-04-17T14:19:19.167Z,13.80
2023-04-17T14:21:46.160Z,9.03
2023-04-17T14:24:13.043Z,10.50
2023-04-17T14:26:40.103Z,10.30
2023-04-17T14:29:07.025Z,11.40
2023-04-17T14:31:33.929Z,8.97
2023-04-17T14:34:00.965Z,16.47
2023-04-17T14:36:27.867Z,10.03
2023-04-17T14:38:54.685Z,9.33
2023-04-17T14:41:21.565Z,10.93
2023-04-17T14:43:48.375Z,13.10
2023-04-17T14:46:15.410Z,21.47
2023-04-17T14:48:54.962Z,13.80
2023-04-17T14:51:24.128Z,15.93
2023-04-17T14:53:53.167Z,10.57
2023-04-17T14:56:21.768Z,8.83
2023-04-17T14:58:48.914Z,12.43
2023-04-17T15:01:16.113Z,11.77
2023-04-17T15:03:46.680Z,10.40
2023-04-17T15:06:15.619Z,11.80
2023-04-17T15:08:42.793Z,17.57
2023-04-17T15:11:09.587Z,17.43
2023-04-17T15:13:36.488Z,17.40
2023-04-17T15:16:03.663Z,9.20
2023-04-17T15:18:30.903Z,9.37
2023-04-17T15:20:57.982Z,9.60
2023-04-17T15:23:26.641Z,11.93
2023-04-17T15:25:57.673Z,11.80
2023-04-17T15:28:25.552Z,13.80
2023-04-17T15:30:52.472Z,11.20
2023-04-17T15:33:19.727Z,10.90
2023-04-17T15:35:46.617Z,11.60
2023-04-17T15:38:13.521Z,23.37
2023-04-17T15:40:40.384Z,19.23
2023-04-17T15:43:07.397Z,12.97
2023-04-17T15:45:34.179Z,12.83
2023-04-17T15:48:01.900Z,13.67
2023-04-17T15:50:28.933Z,9.93
2023-04-17T15:52:55.773Z,10.83
2023-04-17T15:55:22.560Z,11.80
2023-04-17T15:57:49.332Z,12.03
2023-04-17T16:00:16.901Z,12.60
2023-04-17T16:02:47.672Z,11.90
2023-04-17T16:05:16.086Z,9.40
2023-04-17T16:07:43.012Z,8.80
2023-04-17T16:10:14.058Z,11.30
2023-04-17T16:12:45.142Z,19.60
2023-04-17T16:15:13.408Z,12.50
2023-04-17T16:17:40.447Z,10.70
2023-04-17T16:20:08.057Z,11.00
2023-04-17T16:22:34.902Z,13.70
2023-04-17T16:25:02.053Z,14.10
2023-04-17T16:27:29.852Z,9.23
2023-04-17T16:29:56.710Z,9.20
2023-04-17T16:32:25.135Z,10.37
2023-04-17T16:34:52.450Z,9.77
2023-04-17T16:37:19.426Z,7.00
2023-04-17T16:39:46.323Z,9.97
2023-04-17T16:42:13.523Z,7.60
2023-04-17T16:44:40.403Z,9.53
2023-04-17T16:47:13.353Z,8.63
2023-04-17T16:49:41.241Z,7.97
2023-04-17T16:52:08.154Z,7.23
2023-04-17T16:54:34.978Z,8.63
2023-04-17T16:57:02.008Z,8.20
2023-04-17T16:59:28.909Z,9.00
2023-04-17T17:01:55.862Z,7.80
2023-04-17T17:04:22.827Z,9.30
2023-04-17T17:06:49.853Z,8.50
2023-04-17T17:09:16.644Z,19.73
2023-04-17T17:11:43.513Z,9.07
2023-04-17T17:14:10.319Z,10.30
2023-04-17T17:16:37.576Z,8.53
2023-04-17T17:19:04.537Z,7.57
2023-04-17T17:21:31.547Z,18.10
2023-04-17T17:23:58.663Z,11.10
2023-04-17T17:26:25.703Z,11.57
2023-04-17T17:28:53.574Z,10.27
2023-04-17T17:31:21.514Z,9.70
2023-04-17T17:33:54.061Z,22.70
2023-04-17T17:36:24.070Z,8.90
2023-04-17T17:38:56.035Z,9.80
2023-04-17T17:41:24.242Z,9.40
2023-04-17T17:43:51.537Z,12.43
2023-04-17T17:46:19.678Z,14.70
2023-04-17T17:48:46.572Z,19.50
2023-04-17T17:51:13.599Z,10.50
2023-04-17T17:53:41.285Z,10.87
2023-04-17T17:56:08.224Z,11.50
2023-04-17T17:58:35.057Z,12.50
2023-04-17T18:01:02.105Z,11.50
2023-04-17T18:03:29.187Z,22.77
2023-04-17T18:05:56.012Z,15.47
2023-04-17T18:08:22.801Z,14.90
2023-04-17T18:10:49.830Z,11.30
2023-04-17T18:13:16.708Z,15.17
2023-04-17T18:15:43.605Z,12.73
2023-04-17T18:18:10.571Z,19.93
2023-04-17T18:20:39.401Z,13.73
2023-04-17T18:23:06.536Z,15.70
2023-04-17T18:25:35.636Z,14.07
2023-04-17T18:28:03.852Z,18.97
2023-04-17T18:30:30.928Z,12.27
2023-04-17T18:32:57.830Z,10.50
2023-04-17T18:35:24.818Z,11.30
2023-04-17T18:37:51.644Z,11.57
2023-04-17T18:40:18.681Z,13.70
2023-04-17T18:42:45.494Z,13.03
2023-04-17T18:45:16.063Z,13.53
2023-04-17T18:47:43.238Z,11.13
2023-04-17T18:50:11.262Z,15.17
2023-04-17T18:52:40.222Z,9.93
2023-04-17T18:55:08.289Z,11.10
2023-04-17T18:57:35.187Z,11.70
2023-04-17T19:00:01.959Z,10.43
2023-04-17T19:02:28.862Z,12.60
2023-04-17T19:04:56.448Z,14.03
2023-04-17T19:07:26.326Z,21.50
2023-04-17T19:09:53.176Z,10.70
2023-04-17T19:12:19.979Z,13.43
2023-04-17T19:14:46.786Z,22.40
2023-04-17T19:17:13.815Z,13.30
2023-04-17T19:19:40.732Z,12.20
2023-04-17T19:22:07.580Z,17.50
2023-04-17T19:24:34.426Z,10.20
2023-04-17T19:27:02.070Z,22.50
2023-04-17T19:29:28.835Z,13.63
2023-04-17T19:31:55.785Z,17.57
2023-04-17T19:34:22.692Z,15.13
2023-04-17T19:36:49.461Z,15.63
2023-04-17T19:39:16.405Z,26.87
2023-04-17T19:41:46.168Z,11.90
2023-04-17T19:44:14.493Z,16.97
2023-04-17T19:46:41.273Z,11.70
2023-04-17T19:49:08.055Z,13.37
2023-04-17T19:51:34.857Z,12.87
2023-04-17T19:54:01.820Z,12.77
2023-04-17T19:56:28.673Z,10.73
2023-04-17T19:59:01.110Z,23.90
2023-04-17T20:01:28.113Z,19.27
2023-04-17T20:03:55.014Z,10.87
2023-04-17T20:06:21.987Z,11.47
2023-04-17T20:08:49.828Z,15.47
2023-04-17T20:11:17.003Z,10.53
2023-04-17T20:13:43.854Z,19.80
2023-04-17T20:16:10.777Z,27.47
2023-04-17T20:18:38.156Z,10.17
2023-04-17T20:21:06.523Z,12.03
2023-04-17T20:23:33.482Z,13.53
2023-04-17T20:26:00.445Z,14.97
2023-04-17T20:28:29.138Z,19.90
2023-04-17T20:30:56.405Z,12.23
2023-04-17T20:33:23.295Z,12.50
2023-04-17T20:35:50.126Z,16.83
2023-04-17T20:38:16.994Z,13.63
2023-04-17T20:40:43.950Z,14.53
2023-04-17T20:43:10.847Z,33.53
2023-04-17T20:45:37.869Z,12.87
2023-04-17T20:48:04.932Z,19.77
2023-04-17T20:50:31.954Z,14.07
2023-04-17T20:52:58.743Z,16.73
2023-04-17T20:55:25.597Z,13.97
2023-04-17T20:57:52.425Z,20.77
2023-04-17T21:00:19.661Z,15.50
2023-04-17T21:02:46.667Z,12.93
2023-04-17T21:05:13.524Z,28.87
2023-04-17T21:07:40.370Z,17.00
2023-04-17T21:10:07.698Z,14.73
2023-04-17T21:12:35.396Z,17.93
2023-04-17T21:15:02.447Z,12.80
2023-04-17T21:17:29.250Z,14.37
2023-04-17T21:19:56.307Z,19.80
2023-04-17T21:22:23.179Z,13.80
2023-04-17T21:24:49.995Z,13.57
2023-04-17T21:27:16.866Z,18.73
2023-04-17T21:29:43.686Z,19.53
2023-04-17T21:32:10.496Z,15.93
2023-04-17T21:34:37.290Z,14.07
2023-04-17T21:37:05.126Z,19.27
2023-04-17T21:39:33.197Z,20.37
2023-04-17T21:42:00.760Z,15.30
2023-04-17T21:44:27.848Z,23.77
2023-04-17T21:46:54.739Z,18.00
2023-04-17T21:49:22.396Z,14.40
2023-04-17T21:51:49.176Z,25.90
2023-04-17T21:54:16.070Z,19.83
2023-04-17T21:56:42.967Z,16.23
2023-04-17T21:59:09.758Z,13.30
2023-04-17T22:01:36.618Z,19.93
2023-04-17T22:04:03.589Z,22.50
2023-04-17T22:06:30.411Z,18.73
2023-04-17T22:08:57.236Z,14.37
2023-04-17T22:11:24.032Z,17.90
2023-04-17T22:13:50.801Z,19.37
2023-04-17T22:16:17.703Z,17.50
2023-04-17T22:18:44.769Z,21.13
2023-04-17T22:21:13.411Z,16.77
2023-04-17T22:23:40.455Z,13.13
2023-04-17T22:26:07.284Z,22.27
2023-04-17T22:28:34.671Z,21.43
2023-04-17T22:41:47.878Z,15.27
2023-04-17T22:44:14.874Z,13.00
2023-04-17T22:46:41.860Z,13.70
2023-04-17T22:49:08.836Z,19.23
2023-04-17T22:51:35.670Z,16.83
2023-04-17T22:54:11.517Z,16.63
2023-04-17T22:56:42.805Z,26.03
2023-04-17T22:59:10.574Z,22.10
2023-04-17T23:01:37.391Z,15.87
2023-04-17T23:04:04.288Z,12.53
2023-04-17T23:06:32.101Z,13.83
2023-04-17T23:08:58.887Z,14.97
2023-04-17T23:11:25.784Z,14.70
2023-04-17T23:13:52.628Z,16.23
2023-04-17T23:16:19.548Z,16.63
2023-04-17T23:18:46.463Z,19.53
2023-04-17T23:21:13.333Z,19.60
2023-04-17T23:23:40.110Z,12.70
2023-04-17T23:26:06.897Z,11.63
2023-04-17T23:28:33.903Z,12.90
2023-04-17T23:31:05.279Z,11.70
2023-04-17T23:33:46.077Z,10.10
2023-04-17T23:36:13.754Z,11.43
2023-04-17T23:38:40.670Z,13.27
2023-04-17T23:41:07.439Z,12.03
2023-04-17T23:43:34.248Z,11.93
2023-04-17T23:46:01.111Z,10.07
2023-04-17T23:48:28.325Z,10.47
2023-04-17T23:50:55.591Z,15.00
2023-04-17T23:53:22.467Z,9.63
2023-04-17T23:55:49.281Z,12.73
2023-04-17T23:58:16.056Z,8.87
